sensor_id;sensor_type;location;lat;lon;timestamp;P1;durP1;ratioP1;P2;durP2;ratioP2
40757;SDS011;26462;47.384;19.218;2023-02-26T00:01:12;2.25;;;0.98;;
40757;SDS011;26462;47.384;19.218;2023-02-26T00:03:40;3.40;;;0.90;;
40757;SDS011;26462;47.384;19.218;2023-02-26T00:06:08;3.45;;;1.35;;
40757;SDS011;26462;47.384;19.218;2023-02-26T00:08:35;3.67;;;1.08;;
40757;SDS011;26462;47.384;19.218;2023-02-26T00:11:05;3.95;;;1.00;;
40757;SDS011;26462;47.384;19.218;2023-02-26T00:13:36;2.53;;;1.38;;
40757;SDS011;26462;47.384;19.218;2023-02-26T00:16:10;3.33;;;0.80;;
40757;SDS011;26462;47.384;19.218;2023-02-26T00:19:01;3.22;;;1.05;;
40757;SDS011;26462;47.384;19.218;2023-02-26T00:21:30;2.75;;;1.10;;
40757;SDS011;26462;47.384;19.218;2023-02-26T00:23:58;4.82;;;1.10;;
40757;SDS011;26462;47.384;19.218;2023-02-26T00:26:28;5.03;;;1.77;;
40757;SDS011;26462;47.384;19.218;2023-02-26T00:28:57;5.53;;;1.90;;
40757;SDS011;26462;47.384;19.218;2023-02-26T00:31:25;6.57;;;2.13;;
40757;SDS011;26462;47.384;19.218;2023-02-26T00:33:54;15.48;;;4.00;;
40757;SDS011;26462;47.384;19.218;2023-02-26T00:41:56;5.80;;;2.55;;
40757;SDS011;26462;47.384;19.218;2023-02-26T00:44:23;3.58;;;1.90;;
40757;SDS011;26462;47.384;19.218;2023-02-26T00:52:22;4.25;;;1.67;;
40757;SDS011;26462;47.384;19.218;2023-02-26T00:54:57;5.20;;;1.85;;
40757;SDS011;26462;47.384;19.218;2023-02-26T00:57:24;8.95;;;3.00;;
40757;SDS011;26462;47.384;19.218;2023-02-26T00:59:52;5.05;;;2.00;;
40757;SDS011;26462;47.384;19.218;2023-02-26T01:02:19;6.50;;;2.30;;
40757;SDS011;26462;47.384;19.218;2023-02-26T01:04:46;4.97;;;1.75;;
40757;SDS011;26462;47.384;19.218;2023-02-26T01:07:14;4.53;;;1.77;;
40757;SDS011;26462;47.384;19.218;2023-02-26T01:09:43;3.67;;;1.38;;
40757;SDS011;26462;47.384;19.218;2023-02-26T01:12:10;3.40;;;1.63;;
40757;SDS011;26462;47.384;19.218;2023-02-26T01:14:39;7.35;;;3.20;;
40757;SDS011;26462;47.384;19.218;2023-02-26T01:19:54;3.35;;;1.30;;
40757;SDS011;26462;47.384;19.218;2023-02-26T01:23:02;3.40;;;1.35;;
40757;SDS011;26462;47.384;19.218;2023-02-26T01:28:13;3.08;;;1.40;;
40757;SDS011;26462;47.384;19.218;2023-02-26T01:30:40;5.90;;;3.03;;
40757;SDS011;26462;47.384;19.218;2023-02-26T01:33:13;4.10;;;1.73;;
40757;SDS011;26462;47.384;19.218;2023-02-26T01:36:10;5.00;;;2.17;;
40757;SDS011;26462;47.384;19.218;2023-02-26T01:41:32;4.00;;;1.95;;
40757;SDS011;26462;47.384;19.218;2023-02-26T01:49:42;3.88;;;1.20;;
40757;SDS011;26462;47.384;19.218;2023-02-26T01:55:15;5.53;;;2.05;;
40757;SDS011;26462;47.384;19.218;2023-02-26T01:57:48;6.50;;;2.65;;
40757;SDS011;26462;47.384;19.218;2023-02-26T02:00:18;4.40;;;1.95;;
40757;SDS011;26462;47.384;19.218;2023-02-26T02:02:46;4.22;;;1.75;;
40757;SDS011;26462;47.384;19.218;2023-02-26T02:05:20;2.67;;;1.23;;
40757;SDS011;26462;47.384;19.218;2023-02-26T02:07:52;3.58;;;2.20;;
40757;SDS011;26462;47.384;19.218;2023-02-26T02:10:23;4.22;;;2.30;;
40757;SDS011;26462;47.384;19.218;2023-02-26T02:18:42;2.47;;;1.38;;
40757;SDS011;26462;47.384;19.218;2023-02-26T02:21:25;3.75;;;1.40;;
40757;SDS011;26462;47.384;19.218;2023-02-26T02:24:57;7.75;;;3.03;;
40757;SDS011;26462;47.384;19.218;2023-02-26T02:27:07;4.32;;;1.98;;
40757;SDS011;26462;47.384;19.218;2023-02-26T02:29:49;3.90;;;2.15;;
40757;SDS011;26462;47.384;19.218;2023-02-26T02:32:30;5.53;;;2.40;;
40757;SDS011;26462;47.384;19.218;2023-02-26T02:35:28;4.70;;;2.28;;
40757;SDS011;26462;47.384;19.218;2023-02-26T02:38:04;3.50;;;1.70;;
40757;SDS011;26462;47.384;19.218;2023-02-26T02:40:38;4.63;;;1.55;;
40757;SDS011;26462;47.384;19.218;2023-02-26T02:43:18;6.68;;;2.70;;
40757;SDS011;26462;47.384;19.218;2023-02-26T02:46:04;4.53;;;2.25;;
40757;SDS011;26462;47.384;19.218;2023-02-26T02:48:38;3.85;;;1.67;;
40757;SDS011;26462;47.384;19.218;2023-02-26T02:51:16;5.03;;;1.63;;
40757;SDS011;26462;47.384;19.218;2023-02-26T02:54:23;4.95;;;1.92;;
40757;SDS011;26462;47.384;19.218;2023-02-26T02:56:55;3.60;;;1.85;;
40757;SDS011;26462;47.384;19.218;2023-02-26T02:59:54;4.28;;;1.98;;
40757;SDS011;26462;47.384;19.218;2023-02-26T03:04:59;3.83;;;2.38;;
40757;SDS011;26462;47.384;19.218;2023-02-26T03:07:28;4.88;;;2.00;;
40757;SDS011;26462;47.384;19.218;2023-02-26T03:09:59;5.15;;;1.85;;
40757;SDS011;26462;47.384;19.218;2023-02-26T03:12:29;3.95;;;1.40;;
40757;SDS011;26462;47.384;19.218;2023-02-26T03:14:57;3.95;;;1.65;;
40757;SDS011;26462;47.384;19.218;2023-02-26T03:20:03;3.55;;;1.73;;
40757;SDS011;26462;47.384;19.218;2023-02-26T03:25:37;4.35;;;2.10;;
40757;SDS011;26462;47.384;19.218;2023-02-26T03:28:16;3.65;;;1.20;;
40757;SDS011;26462;47.384;19.218;2023-02-26T03:36:25;4.05;;;1.55;;
40757;SDS011;26462;47.384;19.218;2023-02-26T03:39:15;3.88;;;1.23;;
40757;SDS011;26462;47.384;19.218;2023-02-26T03:45:04;4.43;;;1.50;;
40757;SDS011;26462;47.384;19.218;2023-02-26T03:47:37;3.47;;;1.92;;
40757;SDS011;26462;47.384;19.218;2023-02-26T03:50:16;4.28;;;1.50;;
40757;SDS011;26462;47.384;19.218;2023-02-26T03:53:59;2.95;;;1.83;;
40757;SDS011;26462;47.384;19.218;2023-02-26T03:56:32;4.93;;;1.75;;
40757;SDS011;26462;47.384;19.218;2023-02-26T03:59:03;4.20;;;2.00;;
40757;SDS011;26462;47.384;19.218;2023-02-26T04:02:04;3.28;;;1.60;;
40757;SDS011;26462;47.384;19.218;2023-02-26T04:04:51;4.40;;;1.98;;
40757;SDS011;26462;47.384;19.218;2023-02-26T04:07:24;3.90;;;1.60;;
40757;SDS011;26462;47.384;19.218;2023-02-26T04:09:52;4.40;;;1.98;;
40757;SDS011;26462;47.384;19.218;2023-02-26T04:12:24;3.97;;;1.65;;
40757;SDS011;26462;47.384;19.218;2023-02-26T04:14:54;5.07;;;1.80;;
40757;SDS011;26462;47.384;19.218;2023-02-26T04:17:23;3.63;;;1.40;;
40757;SDS011;26462;47.384;19.218;2023-02-26T04:19:50;4.18;;;1.95;;
40757;SDS011;26462;47.384;19.218;2023-02-26T04:22:18;3.58;;;1.50;;
40757;SDS011;26462;47.384;19.218;2023-02-26T04:24:45;9.48;;;4.03;;
40757;SDS011;26462;47.384;19.218;2023-02-26T04:27:13;6.63;;;2.80;;
40757;SDS011;26462;47.384;19.218;2023-02-26T04:29:40;4.63;;;1.80;;
40757;SDS011;26462;47.384;19.218;2023-02-26T04:32:07;5.32;;;2.60;;
40757;SDS011;26462;47.384;19.218;2023-02-26T04:34:35;7.28;;;2.50;;
40757;SDS011;26462;47.384;19.218;2023-02-26T04:37:02;5.63;;;2.72;;
40757;SDS011;26462;47.384;19.218;2023-02-26T04:39:30;4.90;;;2.17;;
40757;SDS011;26462;47.384;19.218;2023-02-26T04:41:57;7.32;;;3.03;;
40757;SDS011;26462;47.384;19.218;2023-02-26T04:44:24;5.78;;;2.70;;
40757;SDS011;26462;47.384;19.218;2023-02-26T04:46:51;5.80;;;2.13;;
40757;SDS011;26462;47.384;19.218;2023-02-26T04:49:18;7.57;;;2.78;;
40757;SDS011;26462;47.384;19.218;2023-02-26T04:51:46;3.42;;;1.85;;
40757;SDS011;26462;47.384;19.218;2023-02-26T04:54:14;4.43;;;2.17;;
40757;SDS011;26462;47.384;19.218;2023-02-26T04:56:41;6.20;;;2.53;;
40757;SDS011;26462;47.384;19.218;2023-02-26T04:59:09;5.50;;;2.13;;
40757;SDS011;26462;47.384;19.218;2023-02-26T05:01:36;6.15;;;2.97;;
40757;SDS011;26462;47.384;19.218;2023-02-26T05:04:06;5.45;;;2.40;;
40757;SDS011;26462;47.384;19.218;2023-02-26T05:06:33;5.47;;;2.60;;
40757;SDS011;26462;47.384;19.218;2023-02-26T05:09:00;4.00;;;2.00;;
40757;SDS011;26462;47.384;19.218;2023-02-26T05:11:29;5.75;;;2.40;;
40757;SDS011;26462;47.384;19.218;2023-02-26T05:13:56;3.72;;;1.90;;
40757;SDS011;26462;47.384;19.218;2023-02-26T05:16:23;4.82;;;2.40;;
40757;SDS011;26462;47.384;19.218;2023-02-26T05:18:51;5.07;;;2.10;;
40757;SDS011;26462;47.384;19.218;2023-02-26T05:21:18;5.45;;;2.10;;
40757;SDS011;26462;47.384;19.218;2023-02-26T05:23:48;6.25;;;2.70;;
40757;SDS011;26462;47.384;19.218;2023-02-26T05:26:15;6.30;;;2.80;;
40757;SDS011;26462;47.384;19.218;2023-02-26T05:28:43;6.28;;;2.80;;
40757;SDS011;26462;47.384;19.218;2023-02-26T05:31:11;5.82;;;2.35;;
40757;SDS011;26462;47.384;19.218;2023-02-26T05:33:39;6.15;;;3.05;;
40757;SDS011;26462;47.384;19.218;2023-02-26T05:36:06;11.02;;;3.67;;
40757;SDS011;26462;47.384;19.218;2023-02-26T05:38:34;18.80;;;6.78;;
40757;SDS011;26462;47.384;19.218;2023-02-26T05:41:01;13.60;;;5.00;;
40757;SDS011;26462;47.384;19.218;2023-02-26T05:43:28;8.73;;;3.65;;
40757;SDS011;26462;47.384;19.218;2023-02-26T05:45:56;7.13;;;2.60;;
40757;SDS011;26462;47.384;19.218;2023-02-26T05:48:23;7.03;;;3.08;;
40757;SDS011;26462;47.384;19.218;2023-02-26T05:50:50;7.22;;;2.97;;
40757;SDS011;26462;47.384;19.218;2023-02-26T05:53:18;5.93;;;2.72;;
40757;SDS011;26462;47.384;19.218;2023-02-26T05:55:45;4.70;;;2.05;;
40757;SDS011;26462;47.384;19.218;2023-02-26T05:58:12;5.47;;;2.58;;
40757;SDS011;26462;47.384;19.218;2023-02-26T06:00:39;5.18;;;2.30;;
40757;SDS011;26462;47.384;19.218;2023-02-26T06:03:07;7.00;;;2.40;;
40757;SDS011;26462;47.384;19.218;2023-02-26T06:05:34;5.55;;;2.08;;
40757;SDS011;26462;47.384;19.218;2023-02-26T06:08:02;13.77;;;4.72;;
40757;SDS011;26462;47.384;19.218;2023-02-26T06:10:31;6.38;;;2.50;;
40757;SDS011;26462;47.384;19.218;2023-02-26T06:12:58;9.55;;;3.63;;
40757;SDS011;26462;47.384;19.218;2023-02-26T06:15:25;5.63;;;2.55;;
40757;SDS011;26462;47.384;19.218;2023-02-26T06:17:52;6.53;;;2.58;;
40757;SDS011;26462;47.384;19.218;2023-02-26T06:20:19;5.75;;;2.38;;
40757;SDS011;26462;47.384;19.218;2023-02-26T06:22:46;6.55;;;2.92;;
40757;SDS011;26462;47.384;19.218;2023-02-26T06:25:14;5.75;;;2.53;;
40757;SDS011;26462;47.384;19.218;2023-02-26T06:27:41;6.78;;;3.90;;
40757;SDS011;26462;47.384;19.218;2023-02-26T06:30:09;7.65;;;2.90;;
40757;SDS011;26462;47.384;19.218;2023-02-26T06:32:36;10.30;;;3.70;;
40757;SDS011;26462;47.384;19.218;2023-02-26T06:35:04;8.07;;;3.30;;
40757;SDS011;26462;47.384;19.218;2023-02-26T06:37:32;7.50;;;3.45;;
40757;SDS011;26462;47.384;19.218;2023-02-26T06:39:59;7.43;;;3.40;;
40757;SDS011;26462;47.384;19.218;2023-02-26T06:42:26;6.30;;;2.83;;
40757;SDS011;26462;47.384;19.218;2023-02-26T06:44:54;6.88;;;3.10;;
40757;SDS011;26462;47.384;19.218;2023-02-26T06:47:23;7.68;;;3.05;;
40757;SDS011;26462;47.384;19.218;2023-02-26T06:49:50;9.55;;;3.72;;
40757;SDS011;26462;47.384;19.218;2023-02-26T06:52:17;12.70;;;5.10;;
40757;SDS011;26462;47.384;19.218;2023-02-26T06:54:45;11.77;;;4.03;;
40757;SDS011;26462;47.384;19.218;2023-02-26T06:57:12;11.27;;;4.25;;
40757;SDS011;26462;47.384;19.218;2023-02-26T06:59:39;9.38;;;3.72;;
40757;SDS011;26462;47.384;19.218;2023-02-26T07:02:06;8.75;;;3.72;;
40757;SDS011;26462;47.384;19.218;2023-02-26T07:04:36;6.75;;;3.10;;
40757;SDS011;26462;47.384;19.218;2023-02-26T07:07:03;5.72;;;2.55;;
40757;SDS011;26462;47.384;19.218;2023-02-26T07:09:30;10.63;;;5.45;;
40757;SDS011;26462;47.384;19.218;2023-02-26T07:11:57;10.18;;;5.35;;
40757;SDS011;26462;47.384;19.218;2023-02-26T07:14:24;8.75;;;4.63;;
40757;SDS011;26462;47.384;19.218;2023-02-26T07:16:52;8.13;;;4.63;;
40757;SDS011;26462;47.384;19.218;2023-02-26T07:19:19;9.88;;;4.30;;
40757;SDS011;26462;47.384;19.218;2023-02-26T07:21:46;9.15;;;4.60;;
40757;SDS011;26462;47.384;19.218;2023-02-26T07:24:14;9.93;;;4.55;;
40757;SDS011;26462;47.384;19.218;2023-02-26T07:26:41;5.78;;;3.22;;
40757;SDS011;26462;47.384;19.218;2023-02-26T07:29:08;7.47;;;3.97;;
40757;SDS011;26462;47.384;19.218;2023-02-26T07:31:35;8.35;;;4.05;;
40757;SDS011;26462;47.384;19.218;2023-02-26T07:34:02;7.72;;;3.67;;
40757;SDS011;26462;47.384;19.218;2023-02-26T07:36:30;7.13;;;3.25;;
40757;SDS011;26462;47.384;19.218;2023-02-26T07:38:57;5.90;;;2.65;;
40757;SDS011;26462;47.384;19.218;2023-02-26T07:41:24;5.75;;;3.03;;
40757;SDS011;26462;47.384;19.218;2023-02-26T07:43:51;7.80;;;4.32;;
40757;SDS011;26462;47.384;19.218;2023-02-26T07:46:18;6.57;;;3.67;;
40757;SDS011;26462;47.384;19.218;2023-02-26T07:48:45;7.75;;;3.80;;
40757;SDS011;26462;47.384;19.218;2023-02-26T07:51:12;9.63;;;4.50;;
40757;SDS011;26462;47.384;19.218;2023-02-26T07:53:40;8.30;;;3.75;;
40757;SDS011;26462;47.384;19.218;2023-02-26T07:56:07;9.68;;;4.25;;
40757;SDS011;26462;47.384;19.218;2023-02-26T07:58:35;9.82;;;3.15;;
40757;SDS011;26462;47.384;19.218;2023-02-26T08:01:02;10.98;;;5.22;;
40757;SDS011;26462;47.384;19.218;2023-02-26T08:03:29;10.40;;;4.18;;
40757;SDS011;26462;47.384;19.218;2023-02-26T08:05:57;13.82;;;5.97;;
40757;SDS011;26462;47.384;19.218;2023-02-26T08:08:28;9.02;;;4.22;;
40757;SDS011;26462;47.384;19.218;2023-02-26T08:10:57;9.52;;;3.63;;
40757;SDS011;26462;47.384;19.218;2023-02-26T08:13:25;8.45;;;3.95;;
40757;SDS011;26462;47.384;19.218;2023-02-26T08:15:52;10.50;;;4.43;;
40757;SDS011;26462;47.384;19.218;2023-02-26T08:18:19;9.25;;;4.40;;
40757;SDS011;26462;47.384;19.218;2023-02-26T08:20:47;7.20;;;3.50;;
40757;SDS011;26462;47.384;19.218;2023-02-26T08:23:17;10.27;;;4.57;;
40757;SDS011;26462;47.384;19.218;2023-02-26T08:25:45;7.75;;;3.35;;
40757;SDS011;26462;47.384;19.218;2023-02-26T08:28:12;6.97;;;3.55;;
40757;SDS011;26462;47.384;19.218;2023-02-26T08:30:40;12.95;;;3.70;;
40757;SDS011;26462;47.384;19.218;2023-02-26T08:33:07;6.45;;;2.45;;
40757;SDS011;26462;47.384;19.218;2023-02-26T08:35:34;6.35;;;2.80;;
40757;SDS011;26462;47.384;19.218;2023-02-26T08:38:01;5.57;;;2.78;;
40757;SDS011;26462;47.384;19.218;2023-02-26T08:40:28;6.47;;;2.83;;
40757;SDS011;26462;47.384;19.218;2023-02-26T08:42:55;5.45;;;3.10;;
40757;SDS011;26462;47.384;19.218;2023-02-26T08:45:25;6.90;;;3.40;;
40757;SDS011;26462;47.384;19.218;2023-02-26T08:47:52;5.03;;;2.40;;
40757;SDS011;26462;47.384;19.218;2023-02-26T08:50:23;6.13;;;2.40;;
40757;SDS011;26462;47.384;19.218;2023-02-26T08:52:51;6.70;;;3.15;;
40757;SDS011;26462;47.384;19.218;2023-02-26T08:55:20;4.45;;;2.55;;
40757;SDS011;26462;47.384;19.218;2023-02-26T08:57:48;8.25;;;3.42;;
40757;SDS011;26462;47.384;19.218;2023-02-26T09:00:15;8.02;;;3.28;;
40757;SDS011;26462;47.384;19.218;2023-02-26T09:02:44;6.60;;;3.08;;
40757;SDS011;26462;47.384;19.218;2023-02-26T09:05:11;6.53;;;3.35;;
40757;SDS011;26462;47.384;19.218;2023-02-26T09:07:40;7.82;;;4.25;;
40757;SDS011;26462;47.384;19.218;2023-02-26T09:10:09;6.88;;;3.55;;
40757;SDS011;26462;47.384;19.218;2023-02-26T09:12:37;5.10;;;2.85;;
40757;SDS011;26462;47.384;19.218;2023-02-26T09:15:04;5.07;;;2.75;;
40757;SDS011;26462;47.384;19.218;2023-02-26T09:17:33;6.70;;;3.88;;
40757;SDS011;26462;47.384;19.218;2023-02-26T09:20:00;10.30;;;4.40;;
40757;SDS011;26462;47.384;19.218;2023-02-26T09:22:29;13.73;;;5.68;;
40757;SDS011;26462;47.384;19.218;2023-02-26T09:24:56;11.75;;;3.85;;
40757;SDS011;26462;47.384;19.218;2023-02-26T09:27:23;8.48;;;3.03;;
40757;SDS011;26462;47.384;19.218;2023-02-26T09:29:50;7.32;;;3.63;;
40757;SDS011;26462;47.384;19.218;2023-02-26T09:32:17;4.88;;;2.53;;
40757;SDS011;26462;47.384;19.218;2023-02-26T09:34:46;8.02;;;3.78;;
40757;SDS011;26462;47.384;19.218;2023-02-26T09:37:13;6.30;;;2.80;;
40757;SDS011;26462;47.384;19.218;2023-02-26T09:39:40;5.40;;;2.50;;
40757;SDS011;26462;47.384;19.218;2023-02-26T09:44:53;7.05;;;3.13;;
40757;SDS011;26462;47.384;19.218;2023-02-26T09:47:37;5.00;;;1.95;;
40757;SDS011;26462;47.384;19.218;2023-02-26T09:50:17;5.07;;;2.17;;
40757;SDS011;26462;47.384;19.218;2023-02-26T09:52:51;4.85;;;2.30;;
40757;SDS011;26462;47.384;19.218;2023-02-26T09:58:01;4.97;;;2.20;;
40757;SDS011;26462;47.384;19.218;2023-02-26T10:08:14;3.78;;;1.95;;
40757;SDS011;26462;47.384;19.218;2023-02-26T10:16:24;3.88;;;2.15;;
40757;SDS011;26462;47.384;19.218;2023-02-26T10:21:39;6.28;;;2.63;;
40757;SDS011;26462;47.384;19.218;2023-02-26T10:24:18;5.25;;;2.53;;
40757;SDS011;26462;47.384;19.218;2023-02-26T10:26:53;5.30;;;2.38;;
40757;SDS011;26462;47.384;19.218;2023-02-26T10:35:18;4.43;;;1.85;;
40757;SDS011;26462;47.384;19.218;2023-02-26T10:37:53;6.03;;;2.30;;
40757;SDS011;26462;47.384;19.218;2023-02-26T10:43:28;5.07;;;2.78;;
40757;SDS011;26462;47.384;19.218;2023-02-26T10:51:33;5.70;;;2.97;;
40757;SDS011;26462;47.384;19.218;2023-02-26T10:56:56;6.72;;;3.53;;
40757;SDS011;26462;47.384;19.218;2023-02-26T10:59:24;5.65;;;3.25;;
40757;SDS011;26462;47.384;19.218;2023-02-26T11:01:52;8.13;;;3.42;;
40757;SDS011;26462;47.384;19.218;2023-02-26T11:04:21;7.10;;;3.33;;
40757;SDS011;26462;47.384;19.218;2023-02-26T11:09:31;7.53;;;4.20;;
40757;SDS011;26462;47.384;19.218;2023-02-26T11:14:44;6.97;;;4.68;;
40757;SDS011;26462;47.384;19.218;2023-02-26T11:17:22;6.20;;;3.92;;
40757;SDS011;26462;47.384;19.218;2023-02-26T11:19:58;7.00;;;4.30;;
40757;SDS011;26462;47.384;19.218;2023-02-26T11:22:32;11.00;;;4.97;;
40757;SDS011;26462;47.384;19.218;2023-02-26T11:25:02;8.68;;;4.80;;
40757;SDS011;26462;47.384;19.218;2023-02-26T11:27:31;6.93;;;4.30;;
40757;SDS011;26462;47.384;19.218;2023-02-26T11:30:05;7.93;;;5.15;;
40757;SDS011;26462;47.384;19.218;2023-02-26T11:32:40;8.57;;;4.68;;
40757;SDS011;26462;47.384;19.218;2023-02-26T11:35:12;8.90;;;4.82;;
40757;SDS011;26462;47.384;19.218;2023-02-26T11:37:41;10.25;;;4.70;;
40757;SDS011;26462;47.384;19.218;2023-02-26T11:40:18;9.75;;;5.35;;
40757;SDS011;26462;47.384;19.218;2023-02-26T11:42:52;10.20;;;5.40;;
40757;SDS011;26462;47.384;19.218;2023-02-26T11:45:22;7.97;;;4.85;;
40757;SDS011;26462;47.384;19.218;2023-02-26T11:47:58;7.47;;;4.25;;
40757;SDS011;26462;47.384;19.218;2023-02-26T11:50:30;6.22;;;3.75;;
40757;SDS011;26462;47.384;19.218;2023-02-26T11:53:16;7.03;;;4.10;;
40757;SDS011;26462;47.384;19.218;2023-02-26T11:55:50;9.07;;;4.90;;
40757;SDS011;26462;47.384;19.218;2023-02-26T11:58:20;8.68;;;4.78;;
40757;SDS011;26462;47.384;19.218;2023-02-26T12:00:53;7.35;;;4.65;;
40757;SDS011;26462;47.384;19.218;2023-02-26T12:03:26;8.18;;;4.53;;
40757;SDS011;26462;47.384;19.218;2023-02-26T12:05:57;7.22;;;4.25;;
40757;SDS011;26462;47.384;19.218;2023-02-26T12:08:32;8.85;;;5.10;;
40757;SDS011;26462;47.384;19.218;2023-02-26T12:38:48;10.63;;;4.90;;
40757;SDS011;26462;47.384;19.218;2023-02-26T12:41:40;9.95;;;4.93;;
40757;SDS011;26462;47.384;19.218;2023-02-26T12:52:56;18.10;;;8.02;;
40757;SDS011;26462;47.384;19.218;2023-02-26T13:01:17;7.85;;;4.95;;
40757;SDS011;26462;47.384;19.218;2023-02-26T13:04:07;10.27;;;5.38;;
40757;SDS011;26462;47.384;19.218;2023-02-26T13:09:54;11.35;;;5.05;;
40757;SDS011;26462;47.384;19.218;2023-02-26T13:17:43;10.63;;;4.43;;
40757;SDS011;26462;47.384;19.218;2023-02-26T13:20:34;8.02;;;4.22;;
40757;SDS011;26462;47.384;19.218;2023-02-26T13:26:31;7.05;;;3.90;;
40757;SDS011;26462;47.384;19.218;2023-02-26T13:29:04;8.85;;;4.55;;
40757;SDS011;26462;47.384;19.218;2023-02-26T13:32:04;11.07;;;5.32;;
40757;SDS011;26462;47.384;19.218;2023-02-26T13:37:04;6.22;;;2.85;;
40757;SDS011;26462;47.384;19.218;2023-02-26T13:48:09;5.22;;;1.80;;
40757;SDS011;26462;47.384;19.218;2023-02-26T13:50:44;4.90;;;1.95;;
40757;SDS011;26462;47.384;19.218;2023-02-26T13:56:05;8.18;;;3.20;;
40757;SDS011;26462;47.384;19.218;2023-02-26T13:58:41;5.25;;;2.25;;
40757;SDS011;26462;47.384;19.218;2023-02-26T14:01:17;4.95;;;2.42;;
40757;SDS011;26462;47.384;19.218;2023-02-26T14:06:46;8.73;;;3.30;;
40757;SDS011;26462;47.384;19.218;2023-02-26T14:22:31;9.63;;;4.18;;
40757;SDS011;26462;47.384;19.218;2023-02-26T14:25:15;8.25;;;3.92;;
40757;SDS011;26462;47.384;19.218;2023-02-26T14:27:48;8.77;;;4.32;;
40757;SDS011;26462;47.384;19.218;2023-02-26T14:30:27;11.45;;;5.30;;
40757;SDS011;26462;47.384;19.218;2023-02-26T14:35:32;10.02;;;3.70;;
40757;SDS011;26462;47.384;19.218;2023-02-26T14:38:15;11.05;;;4.85;;
40757;SDS011;26462;47.384;19.218;2023-02-26T14:40:54;12.30;;;6.18;;
40757;SDS011;26462;47.384;19.218;2023-02-26T14:46:03;19.35;;;9.57;;
40757;SDS011;26462;47.384;19.218;2023-02-26T14:48:33;64.75;;;22.95;;
40757;SDS011;26462;47.384;19.218;2023-02-26T15:02:01;15.85;;;7.90;;
40757;SDS011;26462;47.384;19.218;2023-02-26T15:04:51;12.85;;;6.65;;
40757;SDS011;26462;47.384;19.218;2023-02-26T15:10:39;10.38;;;4.50;;
40757;SDS011;26462;47.384;19.218;2023-02-26T15:22:14;11.25;;;5.93;;
40757;SDS011;26462;47.384;19.218;2023-02-26T15:24:55;7.85;;;4.20;;
40757;SDS011;26462;47.384;19.218;2023-02-26T15:27:25;8.18;;;4.55;;
40757;SDS011;26462;47.384;19.218;2023-02-26T15:29:56;10.87;;;5.03;;
40757;SDS011;26462;47.384;19.218;2023-02-26T15:32:28;12.50;;;4.40;;
40757;SDS011;26462;47.384;19.218;2023-02-26T15:34:59;12.00;;;6.13;;
40757;SDS011;26462;47.384;19.218;2023-02-26T15:37:35;18.17;;;8.27;;
40757;SDS011;26462;47.384;19.218;2023-02-26T15:40:04;35.85;;;15.52;;
40757;SDS011;26462;47.384;19.218;2023-02-26T15:42:38;41.58;;;17.38;;
40757;SDS011;26462;47.384;19.218;2023-02-26T15:45:19;32.40;;;13.90;;
40757;SDS011;26462;47.384;19.218;2023-02-26T15:47:55;28.37;;;12.43;;
40757;SDS011;26462;47.384;19.218;2023-02-26T15:50:28;25.27;;;10.15;;
40757;SDS011;26462;47.384;19.218;2023-02-26T15:53:00;18.70;;;8.60;;
40757;SDS011;26462;47.384;19.218;2023-02-26T15:55:31;16.73;;;8.75;;
40757;SDS011;26462;47.384;19.218;2023-02-26T16:00:34;22.58;;;10.30;;
40757;SDS011;26462;47.384;19.218;2023-02-26T16:03:03;21.17;;;8.25;;
40757;SDS011;26462;47.384;19.218;2023-02-26T16:05:31;18.73;;;8.82;;
40757;SDS011;26462;47.384;19.218;2023-02-26T16:08:02;22.25;;;10.10;;
40757;SDS011;26462;47.384;19.218;2023-02-26T16:10:33;15.45;;;7.70;;
40757;SDS011;26462;47.384;19.218;2023-02-26T16:13:05;15.77;;;7.30;;
40757;SDS011;26462;47.384;19.218;2023-02-26T16:15:38;17.33;;;8.77;;
40757;SDS011;26462;47.384;19.218;2023-02-26T16:18:08;17.85;;;7.88;;
40757;SDS011;26462;47.384;19.218;2023-02-26T16:20:44;16.85;;;6.55;;
40757;SDS011;26462;47.384;19.218;2023-02-26T16:23:26;15.93;;;7.43;;
40757;SDS011;26462;47.384;19.218;2023-02-26T16:26:05;20.98;;;8.77;;
40757;SDS011;26462;47.384;19.218;2023-02-26T16:31:19;23.70;;;8.25;;
40757;SDS011;26462;47.384;19.218;2023-02-26T16:33:57;31.58;;;10.48;;
40757;SDS011;26462;47.384;19.218;2023-02-26T16:36:29;31.20;;;10.35;;
40757;SDS011;26462;47.384;19.218;2023-02-26T16:41:36;15.75;;;6.07;;
40757;SDS011;26462;47.384;19.218;2023-02-26T16:46:57;15.88;;;6.05;;
40757;SDS011;26462;47.384;19.218;2023-02-26T16:49:32;15.07;;;6.30;;
40757;SDS011;26462;47.384;19.218;2023-02-26T16:52:04;16.80;;;5.75;;
40757;SDS011;26462;47.384;19.218;2023-02-26T16:54:37;13.13;;;6.03;;
40757;SDS011;26462;47.384;19.218;2023-02-26T16:57:18;13.45;;;5.20;;
40757;SDS011;26462;47.384;19.218;2023-02-26T17:00:02;10.50;;;4.88;;
40757;SDS011;26462;47.384;19.218;2023-02-26T17:02:36;11.82;;;5.90;;
40757;SDS011;26462;47.384;19.218;2023-02-26T17:05:13;8.30;;;3.87;;
40757;SDS011;26462;47.384;19.218;2023-02-26T17:07:51;10.57;;;4.38;;
40757;SDS011;26462;47.384;19.218;2023-02-26T17:10:32;9.93;;;4.35;;
40757;SDS011;26462;47.384;19.218;2023-02-26T17:15:52;13.32;;;5.35;;
40757;SDS011;26462;47.384;19.218;2023-02-26T17:18:27;8.75;;;4.25;;
40757;SDS011;26462;47.384;19.218;2023-02-26T17:20:57;9.20;;;4.13;;
40757;SDS011;26462;47.384;19.218;2023-02-26T17:23:31;15.43;;;4.95;;
40757;SDS011;26462;47.384;19.218;2023-02-26T17:26:03;13.00;;;5.97;;
40757;SDS011;26462;47.384;19.218;2023-02-26T17:28:33;14.73;;;5.97;;
40757;SDS011;26462;47.384;19.218;2023-02-26T17:31:07;14.23;;;5.78;;
40757;SDS011;26462;47.384;19.218;2023-02-26T17:33:40;14.35;;;6.13;;
40757;SDS011;26462;47.384;19.218;2023-02-26T17:36:13;14.60;;;6.03;;
40757;SDS011;26462;47.384;19.218;2023-02-26T17:38:45;21.30;;;7.57;;
40757;SDS011;26462;47.384;19.218;2023-02-26T17:41:17;17.40;;;6.97;;
40757;SDS011;26462;47.384;19.218;2023-02-26T17:43:46;16.65;;;6.50;;
40757;SDS011;26462;47.384;19.218;2023-02-26T17:46:16;14.18;;;5.97;;
40757;SDS011;26462;47.384;19.218;2023-02-26T17:48:46;13.55;;;5.20;;
40757;SDS011;26462;47.384;19.218;2023-02-26T17:51:14;15.52;;;5.28;;
40757;SDS011;26462;47.384;19.218;2023-02-26T17:53:44;12.45;;;5.47;;
40757;SDS011;26462;47.384;19.218;2023-02-26T17:56:33;16.75;;;7.03;;
40757;SDS011;26462;47.384;19.218;2023-02-26T17:59:03;19.00;;;7.57;;
40757;SDS011;26462;47.384;19.218;2023-02-26T18:01:35;16.35;;;7.82;;
40757;SDS011;26462;47.384;19.218;2023-02-26T18:04:03;15.43;;;7.53;;
40757;SDS011;26462;47.384;19.218;2023-02-26T18:06:33;21.58;;;9.02;;
40757;SDS011;26462;47.384;19.218;2023-02-26T18:09:09;18.58;;;7.45;;
40757;SDS011;26462;47.384;19.218;2023-02-26T18:11:38;18.17;;;8.77;;
40757;SDS011;26462;47.384;19.218;2023-02-26T18:14:09;16.83;;;8.38;;
40757;SDS011;26462;47.384;19.218;2023-02-26T18:16:38;22.38;;;9.63;;
40757;SDS011;26462;47.384;19.218;2023-02-26T18:19:09;19.17;;;9.73;;
40757;SDS011;26462;47.384;19.218;2023-02-26T18:21:41;17.25;;;8.50;;
40757;SDS011;26462;47.384;19.218;2023-02-26T18:24:11;19.02;;;8.18;;
40757;SDS011;26462;47.384;19.218;2023-02-26T18:26:39;22.73;;;9.65;;
40757;SDS011;26462;47.384;19.218;2023-02-26T18:29:09;27.85;;;9.75;;
40757;SDS011;26462;47.384;19.218;2023-02-26T18:31:38;21.15;;;9.52;;
40757;SDS011;26462;47.384;19.218;2023-02-26T18:34:06;25.50;;;11.25;;
40757;SDS011;26462;47.384;19.218;2023-02-26T18:36:35;27.73;;;12.23;;
40757;SDS011;26462;47.384;19.218;2023-02-26T18:39:06;44.75;;;16.45;;